sensor_id;sensor_type;location;lat;lon;timestamp;P1;durP1;ratioP1;P2;durP2;ratioP2
6037;SDS011;3047;42.600;23.470;2023-07-13T00:01:38;1.33;;;1.33;;
6037;SDS011;3047;42.600;23.470;2023-07-13T00:04:06;2.03;;;2.00;;
6037;SDS011;3047;42.600;23.470;2023-07-13T00:06:33;1.35;;;1.35;;
6037;SDS011;3047;42.600;23.470;2023-07-13T00:09:00;2.05;;;2.05;;
6037;SDS011;3047;42.600;23.470;2023-07-13T00:11:27;1.13;;;1.13;;
6037;SDS011;3047;42.600;23.470;2023-07-13T00:13:54;1.30;;;1.30;;
6037;SDS011;3047;42.600;23.470;2023-07-13T00:16:21;1.67;;;1.67;;
6037;SDS011;3047;42.600;23.470;2023-07-13T00:18:48;1.80;;;1.80;;
6037;SDS011;3047;42.600;23.470;2023-07-13T00:21:16;1.38;;;1.38;;
6037;SDS011;3047;42.600;23.470;2023-07-13T00:23:42;1.83;;;1.83;;
6037;SDS011;3047;42.600;23.470;2023-07-13T00:26:09;2.15;;;2.00;;
6037;SDS011;3047;42.600;23.470;2023-07-13T00:28:37;1.60;;;1.60;;
6037;SDS011;3047;42.600;23.470;2023-07-13T00:31:04;1.40;;;1.40;;
6037;SDS011;3047;42.600;23.470;2023-07-13T00:33:31;1.52;;;1.50;;
6037;SDS011;3047;42.600;23.470;2023-07-13T00:35:58;1.48;;;1.38;;
6037;SDS011;3047;42.600;23.470;2023-07-13T00:38:26;1.67;;;1.67;;
6037;SDS011;3047;42.600;23.470;2023-07-13T00:40:53;1.00;;;1.00;;
6037;SDS011;3047;42.600;23.470;2023-07-13T00:43:20;1.38;;;1.38;;
6037;SDS011;3047;42.600;23.470;2023-07-13T00:48:37;1.52;;;1.50;;
6037;SDS011;3047;42.600;23.470;2023-07-13T00:51:05;1.58;;;1.58;;
6037;SDS011;3047;42.600;23.470;2023-07-13T00:53:33;1.10;;;1.10;;
6037;SDS011;3047;42.600;23.470;2023-07-13T00:56:00;1.33;;;1.33;;
6037;SDS011;3047;42.600;23.470;2023-07-13T00:58:27;1.10;;;1.10;;
6037;SDS011;3047;42.600;23.470;2023-07-13T01:00:55;1.70;;;1.60;;
6037;SDS011;3047;42.600;23.470;2023-07-13T01:03:22;1.60;;;1.60;;
6037;SDS011;3047;42.600;23.470;2023-07-13T01:05:48;2.63;;;1.65;;
6037;SDS011;3047;42.600;23.470;2023-07-13T01:08:18;0.93;;;0.93;;
6037;SDS011;3047;42.600;23.470;2023-07-13T01:10:56;1.15;;;1.15;;
6037;SDS011;3047;42.600;23.470;2023-07-13T01:13:24;1.10;;;1.10;;
6037;SDS011;3047;42.600;23.470;2023-07-13T01:15:52;1.90;;;1.90;;
6037;SDS011;3047;42.600;23.470;2023-07-13T01:18:21;1.20;;;1.20;;
6037;SDS011;3047;42.600;23.470;2023-07-13T01:20:52;1.27;;;1.27;;
6037;SDS011;3047;42.600;23.470;2023-07-13T01:23:20;1.20;;;1.20;;
6037;SDS011;3047;42.600;23.470;2023-07-13T01:25:47;1.42;;;1.42;;
6037;SDS011;3047;42.600;23.470;2023-07-13T01:28:14;1.10;;;1.10;;
6037;SDS011;3047;42.600;23.470;2023-07-13T01:30:42;1.67;;;1.67;;
6037;SDS011;3047;42.600;23.470;2023-07-13T01:33:10;1.13;;;1.13;;
6037;SDS011;3047;42.600;23.470;2023-07-13T01:35:38;1.92;;;1.92;;
6037;SDS011;3047;42.600;23.470;2023-07-13T01:38:06;1.20;;;1.20;;
6037;SDS011;3047;42.600;23.470;2023-07-13T01:40:34;1.10;;;1.10;;
6037;SDS011;3047;42.600;23.470;2023-07-13T01:43:01;2.00;;;1.92;;
6037;SDS011;3047;42.600;23.470;2023-07-13T01:45:28;1.15;;;1.15;;
6037;SDS011;3047;42.600;23.470;2023-07-13T01:47:55;1.15;;;1.15;;
6037;SDS011;3047;42.600;23.470;2023-07-13T01:50:23;1.45;;;1.45;;
6037;SDS011;3047;42.600;23.470;2023-07-13T01:52:49;1.20;;;1.20;;
6037;SDS011;3047;42.600;23.470;2023-07-13T01:55:17;1.23;;;1.23;;
6037;SDS011;3047;42.600;23.470;2023-07-13T01:57:45;2.20;;;2.10;;
6037;SDS011;3047;42.600;23.470;2023-07-13T02:00:12;2.13;;;2.13;;
6037;SDS011;3047;42.600;23.470;2023-07-13T02:02:40;1.67;;;1.67;;
6037;SDS011;3047;42.600;23.470;2023-07-13T02:05:07;1.30;;;1.30;;
6037;SDS011;3047;42.600;23.470;2023-07-13T02:07:34;2.05;;;1.95;;
6037;SDS011;3047;42.600;23.470;2023-07-13T02:10:01;1.23;;;1.15;;
6037;SDS011;3047;42.600;23.470;2023-07-13T02:12:30;1.35;;;1.25;;
6037;SDS011;3047;42.600;23.470;2023-07-13T02:14:56;1.23;;;1.23;;
6037;SDS011;3047;42.600;23.470;2023-07-13T02:17:23;1.20;;;1.20;;
6037;SDS011;3047;42.600;23.470;2023-07-13T02:19:50;1.10;;;1.10;;
6037;SDS011;3047;42.600;23.470;2023-07-13T02:22:16;2.08;;;1.98;;
6037;SDS011;3047;42.600;23.470;2023-07-13T02:24:43;1.27;;;1.27;;
6037;SDS011;3047;42.600;23.470;2023-07-13T02:27:10;1.27;;;1.27;;
6037;SDS011;3047;42.600;23.470;2023-07-13T02:29:38;1.98;;;1.90;;
6037;SDS011;3047;42.600;23.470;2023-07-13T02:32:05;0.90;;;0.90;;
6037;SDS011;3047;42.600;23.470;2023-07-13T02:34:32;0.90;;;0.90;;
6037;SDS011;3047;42.600;23.470;2023-07-13T02:36:59;0.95;;;0.95;;
6037;SDS011;3047;42.600;23.470;2023-07-13T02:39:26;0.70;;;0.70;;
6037;SDS011;3047;42.600;23.470;2023-07-13T02:41:52;0.90;;;0.90;;
6037;SDS011;3047;42.600;23.470;2023-07-13T02:44:19;0.80;;;0.80;;
6037;SDS011;3047;42.600;23.470;2023-07-13T02:46:47;0.90;;;0.90;;
6037;SDS011;3047;42.600;23.470;2023-07-13T02:49:13;0.63;;;0.63;;
6037;SDS011;3047;42.600;23.470;2023-07-13T02:51:40;0.90;;;0.90;;
6037;SDS011;3047;42.600;23.470;2023-07-13T02:54:07;0.98;;;0.98;;
6037;SDS011;3047;42.600;23.470;2023-07-13T02:56:33;1.30;;;0.95;;
6037;SDS011;3047;42.600;23.470;2023-07-13T02:59:00;1.50;;;1.50;;
6037;SDS011;3047;42.600;23.470;2023-07-13T03:01:27;1.30;;;1.30;;
6037;SDS011;3047;42.600;23.470;2023-07-13T03:03:56;0.85;;;0.85;;
6037;SDS011;3047;42.600;23.470;2023-07-13T03:06:22;0.95;;;0.95;;
6037;SDS011;3047;42.600;23.470;2023-07-13T03:08:49;1.05;;;1.05;;
6037;SDS011;3047;42.600;23.470;2023-07-13T03:11:17;1.55;;;1.55;;
6037;SDS011;3047;42.600;23.470;2023-07-13T03:13:45;0.95;;;0.95;;
6037;SDS011;3047;42.600;23.470;2023-07-13T03:16:12;1.17;;;1.17;;
6037;SDS011;3047;42.600;23.470;2023-07-13T03:18:40;1.42;;;0.98;;
6037;SDS011;3047;42.600;23.470;2023-07-13T03:21:09;1.20;;;1.20;;
6037;SDS011;3047;42.600;23.470;2023-07-13T03:23:36;0.73;;;0.73;;
6037;SDS011;3047;42.600;23.470;2023-07-13T03:26:04;0.63;;;0.63;;
6037;SDS011;3047;42.600;23.470;2023-07-13T03:28:32;1.10;;;1.10;;
6037;SDS011;3047;42.600;23.470;2023-07-13T03:31:00;0.80;;;0.80;;
6037;SDS011;3047;42.600;23.470;2023-07-13T03:33:29;0.88;;;0.88;;
6037;SDS011;3047;42.600;23.470;2023-07-13T03:35:55;0.70;;;0.70;;
6037;SDS011;3047;42.600;23.470;2023-07-13T03:38:24;0.80;;;0.80;;
6037;SDS011;3047;42.600;23.470;2023-07-13T03:40:51;0.80;;;0.80;;
6037;SDS011;3047;42.600;23.470;2023-07-13T03:43:18;1.60;;;1.60;;
6037;SDS011;3047;42.600;23.470;2023-07-13T03:45:46;1.13;;;1.13;;
6037;SDS011;3047;42.600;23.470;2023-07-13T03:48:13;1.10;;;1.10;;
6037;SDS011;3047;42.600;23.470;2023-07-13T03:50:40;1.00;;;1.00;;
6037;SDS011;3047;42.600;23.470;2023-07-13T03:53:07;1.05;;;1.05;;
6037;SDS011;3047;42.600;23.470;2023-07-13T03:55:35;1.60;;;1.60;;
6037;SDS011;3047;42.600;23.470;2023-07-13T04:00:51;1.98;;;1.98;;
6037;SDS011;3047;42.600;23.470;2023-07-13T04:03:18;1.17;;;1.17;;
6037;SDS011;3047;42.600;23.470;2023-07-13T04:05:45;1.23;;;1.23;;
6037;SDS011;3047;42.600;23.470;2023-07-13T04:08:12;1.08;;;1.08;;
6037;SDS011;3047;42.600;23.470;2023-07-13T04:10:40;1.00;;;1.00;;
6037;SDS011;3047;42.600;23.470;2023-07-13T04:13:07;1.83;;;1.83;;
6037;SDS011;3047;42.600;23.470;2023-07-13T04:15:33;1.10;;;1.10;;
6037;SDS011;3047;42.600;23.470;2023-07-13T04:18:00;1.17;;;1.17;;
6037;SDS011;3047;42.600;23.470;2023-07-13T04:20:28;1.40;;;1.40;;
6037;SDS011;3047;42.600;23.470;2023-07-13T04:22:55;0.75;;;0.75;;
6037;SDS011;3047;42.600;23.470;2023-07-13T04:25:22;0.90;;;0.90;;
6037;SDS011;3047;42.600;23.470;2023-07-13T04:27:50;1.08;;;0.90;;
6037;SDS011;3047;42.600;23.470;2023-07-13T04:30:17;1.52;;;1.52;;
6037;SDS011;3047;42.600;23.470;2023-07-13T04:32:44;0.88;;;0.88;;
6037;SDS011;3047;42.600;23.470;2023-07-13T04:35:11;0.77;;;0.77;;
6037;SDS011;3047;42.600;23.470;2023-07-13T04:37:39;0.88;;;0.88;;
6037;SDS011;3047;42.600;23.470;2023-07-13T04:40:06;1.08;;;1.08;;
6037;SDS011;3047;42.600;23.470;2023-07-13T04:42:36;1.13;;;1.13;;
6037;SDS011;3047;42.600;23.470;2023-07-13T04:45:05;1.38;;;1.38;;
6037;SDS011;3047;42.600;23.470;2023-07-13T04:47:33;0.77;;;0.77;;
6037;SDS011;3047;42.600;23.470;2023-07-13T04:49:59;0.90;;;0.90;;
6037;SDS011;3047;42.600;23.470;2023-07-13T04:52:26;0.98;;;0.98;;
6037;SDS011;3047;42.600;23.470;2023-07-13T05:11:21;2.15;;;2.00;;
6037;SDS011;3047;42.600;23.470;2023-07-13T05:13:47;2.38;;;2.17;;
6037;SDS011;3047;42.600;23.470;2023-07-13T05:16:14;1.38;;;1.38;;
6037;SDS011;3047;42.600;23.470;2023-07-13T05:18:41;1.45;;;1.40;;
6037;SDS011;3047;42.600;23.470;2023-07-13T05:21:08;0.90;;;0.90;;
6037;SDS011;3047;42.600;23.470;2023-07-13T05:23:35;1.80;;;1.73;;
6037;SDS011;3047;42.600;23.470;2023-07-13T05:26:03;2.10;;;2.05;;
6037;SDS011;3047;42.600;23.470;2023-07-13T05:28:31;1.98;;;1.83;;
6037;SDS011;3047;42.600;23.470;2023-07-13T05:30:58;1.08;;;1.08;;
6037;SDS011;3047;42.600;23.470;2023-07-13T05:33:25;1.30;;;1.30;;
6037;SDS011;3047;42.600;23.470;2023-07-13T05:35:52;1.23;;;1.23;;
6037;SDS011;3047;42.600;23.470;2023-07-13T05:38:19;2.08;;;2.03;;
6037;SDS011;3047;42.600;23.470;2023-07-13T05:40:46;2.08;;;2.03;;
6037;SDS011;3047;42.600;23.470;2023-07-13T05:43:13;2.05;;;2.00;;
6037;SDS011;3047;42.600;23.470;2023-07-13T05:45:42;1.70;;;1.70;;
6037;SDS011;3047;42.600;23.470;2023-07-13T05:48:08;1.45;;;1.35;;
6037;SDS011;3047;42.600;23.470;2023-07-13T05:50:35;1.50;;;1.50;;
6037;SDS011;3047;42.600;23.470;2023-07-13T05:53:02;1.38;;;1.38;;
6037;SDS011;3047;42.600;23.470;2023-07-13T05:55:29;2.08;;;2.00;;
6037;SDS011;3047;42.600;23.470;2023-07-13T05:57:56;1.05;;;1.05;;
6037;SDS011;3047;42.600;23.470;2023-07-13T06:00:23;1.73;;;1.67;;
6037;SDS011;3047;42.600;23.470;2023-07-13T06:02:51;1.65;;;1.08;;
6037;SDS011;3047;42.600;23.470;2023-07-13T06:05:18;1.33;;;1.23;;
6037;SDS011;3047;42.600;23.470;2023-07-13T06:07:45;2.40;;;2.30;;
6037;SDS011;3047;42.600;23.470;2023-07-13T06:10:12;1.48;;;1.48;;
6037;SDS011;3047;42.600;23.470;2023-07-13T06:12:38;1.73;;;1.73;;
6037;SDS011;3047;42.600;23.470;2023-07-13T06:15:06;1.75;;;1.65;;
6037;SDS011;3047;42.600;23.470;2023-07-13T06:17:33;1.65;;;1.55;;
6037;SDS011;3047;42.600;23.470;2023-07-13T06:20:01;1.58;;;1.48;;
6037;SDS011;3047;42.600;23.470;2023-07-13T06:22:28;1.40;;;1.40;;
6037;SDS011;3047;42.600;23.470;2023-07-13T06:24:55;1.50;;;1.42;;
6037;SDS011;3047;42.600;23.470;2023-07-13T06:27:21;2.08;;;1.55;;
6037;SDS011;3047;42.600;23.470;2023-07-13T06:29:48;1.40;;;1.35;;
6037;SDS011;3047;42.600;23.470;2023-07-13T06:32:15;1.60;;;1.30;;
6037;SDS011;3047;42.600;23.470;2023-07-13T06:34:41;1.80;;;1.70;;
6037;SDS011;3047;42.600;23.470;2023-07-13T06:37:10;2.55;;;2.45;;
6037;SDS011;3047;42.600;23.470;2023-07-13T06:39:37;1.60;;;1.50;;
6037;SDS011;3047;42.600;23.470;2023-07-13T06:42:03;1.70;;;1.60;;
6037;SDS011;3047;42.600;23.470;2023-07-13T06:44:31;2.22;;;1.92;;
6037;SDS011;3047;42.600;23.470;2023-07-13T06:46:58;1.67;;;1.58;;
6037;SDS011;3047;42.600;23.470;2023-07-13T06:49:24;1.63;;;1.52;;
6037;SDS011;3047;42.600;23.470;2023-07-13T06:51:51;2.78;;;2.58;;
6037;SDS011;3047;42.600;23.470;2023-07-13T06:54:19;1.58;;;1.58;;
6037;SDS011;3047;42.600;23.470;2023-07-13T06:56:46;1.85;;;1.75;;
6037;SDS011;3047;42.600;23.470;2023-07-13T06:59:13;1.67;;;1.58;;
6037;SDS011;3047;42.600;23.470;2023-07-13T07:01:39;1.92;;;1.83;;
6037;SDS011;3047;42.600;23.470;2023-07-13T07:04:06;1.90;;;1.80;;
6037;SDS011;3047;42.600;23.470;2023-07-13T07:06:33;1.45;;;1.42;;
6037;SDS011;3047;42.600;23.470;2023-07-13T07:09:00;2.13;;;1.98;;
6037;SDS011;3047;42.600;23.470;2023-07-13T07:11:28;1.52;;;1.38;;
6037;SDS011;3047;42.600;23.470;2023-07-13T07:13:55;1.52;;;1.42;;
6037;SDS011;3047;42.600;23.470;2023-07-13T07:16:21;2.25;;;2.10;;
6037;SDS011;3047;42.600;23.470;2023-07-13T07:18:50;2.45;;;1.90;;
6037;SDS011;3047;42.600;23.470;2023-07-13T07:21:17;2.58;;;2.45;;
6037;SDS011;3047;42.600;23.470;2023-07-13T07:23:44;5.78;;;1.50;;
6037;SDS011;3047;42.600;23.470;2023-07-13T07:26:10;2.20;;;2.08;;
6037;SDS011;3047;42.600;23.470;2023-07-13T07:28:39;2.08;;;1.98;;
6037;SDS011;3047;42.600;23.470;2023-07-13T07:31:06;2.15;;;1.95;;
6037;SDS011;3047;42.600;23.470;2023-07-13T07:33:33;1.83;;;1.67;;
6037;SDS011;3047;42.600;23.470;2023-07-13T07:36:00;1.75;;;1.65;;
6037;SDS011;3047;42.600;23.470;2023-07-13T07:38:27;2.13;;;1.70;;
6037;SDS011;3047;42.600;23.470;2023-07-13T07:40:54;5.40;;;2.15;;
6037;SDS011;3047;42.600;23.470;2023-07-13T07:43:20;2.67;;;2.47;;
6037;SDS011;3047;42.600;23.470;2023-07-13T07:45:48;3.88;;;2.17;;
6037;SDS011;3047;42.600;23.470;2023-07-13T07:48:15;3.72;;;3.38;;
6037;SDS011;3047;42.600;23.470;2023-07-13T07:50:42;2.63;;;2.42;;
6037;SDS011;3047;42.600;23.470;2023-07-13T07:53:11;4.20;;;2.38;;
6037;SDS011;3047;42.600;23.470;2023-07-13T07:55:38;4.13;;;2.70;;
6037;SDS011;3047;42.600;23.470;2023-07-13T07:58:04;3.60;;;3.33;;
6037;SDS011;3047;42.600;23.470;2023-07-13T08:00:32;1.80;;;1.70;;
6037;SDS011;3047;42.600;23.470;2023-07-13T08:03:01;3.67;;;2.20;;
6037;SDS011;3047;42.600;23.470;2023-07-13T08:05:28;2.90;;;2.70;;
6037;SDS011;3047;42.600;23.470;2023-07-13T08:07:55;2.35;;;2.15;;
6037;SDS011;3047;42.600;23.470;2023-07-13T08:10:22;2.50;;;2.30;;
6037;SDS011;3047;42.600;23.470;2023-07-13T08:12:48;3.75;;;3.47;;
6037;SDS011;3047;42.600;23.470;2023-07-13T08:15:16;3.50;;;2.70;;
6037;SDS011;3047;42.600;23.470;2023-07-13T08:17:46;2.47;;;1.92;;
6037;SDS011;3047;42.600;23.470;2023-07-13T08:20:14;2.42;;;2.33;;
6037;SDS011;3047;42.600;23.470;2023-07-13T08:22:41;2.25;;;2.13;;
6037;SDS011;3047;42.600;23.470;2023-07-13T08:25:08;2.88;;;2.67;;
6037;SDS011;3047;42.600;23.470;2023-07-13T08:27:35;2.30;;;2.15;;
6037;SDS011;3047;42.600;23.470;2023-07-13T08:30:02;2.08;;;1.98;;
6037;SDS011;3047;42.600;23.470;2023-07-13T08:32:30;4.05;;;2.15;;
6037;SDS011;3047;42.600;23.470;2023-07-13T08:34:57;2.35;;;2.22;;
6037;SDS011;3047;42.600;23.470;2023-07-13T08:37:25;3.30;;;3.00;;
6037;SDS011;3047;42.600;23.470;2023-07-13T08:39:52;2.60;;;2.40;;
6037;SDS011;3047;42.600;23.470;2023-07-13T08:42:22;3.00;;;2.65;;
6037;SDS011;3047;42.600;23.470;2023-07-13T08:45:00;4.35;;;2.22;;
6037;SDS011;3047;42.600;23.470;2023-07-13T08:47:37;2.38;;;2.03;;
6037;SDS011;3047;42.600;23.470;2023-07-13T08:50:08;5.13;;;2.47;;
6037;SDS011;3047;42.600;23.470;2023-07-13T08:52:40;2.03;;;1.90;;
6037;SDS011;3047;42.600;23.470;2023-07-13T08:55:12;2.53;;;2.33;;
6037;SDS011;3047;42.600;23.470;2023-07-13T08:57:42;6.82;;;2.53;;
6037;SDS011;3047;42.600;23.470;2023-07-13T09:00:12;2.92;;;2.08;;
6037;SDS011;3047;42.600;23.470;2023-07-13T09:02:42;2.50;;;2.30;;
6037;SDS011;3047;42.600;23.470;2023-07-13T09:05:13;2.78;;;2.30;;
6037;SDS011;3047;42.600;23.470;2023-07-13T09:07:48;3.97;;;2.25;;
6037;SDS011;3047;42.600;23.470;2023-07-13T09:10:27;2.63;;;2.50;;
6037;SDS011;3047;42.600;23.470;2023-07-13T09:13:07;3.05;;;2.47;;
6037;SDS011;3047;42.600;23.470;2023-07-13T09:15:58;3.75;;;2.25;;
6037;SDS011;3047;42.600;23.470;2023-07-13T09:18:28;3.03;;;2.55;;
6037;SDS011;3047;42.600;23.470;2023-07-13T09:21:02;3.13;;;2.92;;
6037;SDS011;3047;42.600;23.470;2023-07-13T09:23:32;4.25;;;3.17;;
6037;SDS011;3047;42.600;23.470;2023-07-13T09:26:02;3.05;;;2.83;;
6037;SDS011;3047;42.600;23.470;2023-07-13T09:28:33;2.72;;;2.55;;
6037;SDS011;3047;42.600;23.470;2023-07-13T09:31:04;2.75;;;2.55;;
6037;SDS011;3047;42.600;23.470;2023-07-13T09:33:33;3.40;;;3.10;;
6037;SDS011;3047;42.600;23.470;2023-07-13T09:36:00;3.08;;;2.80;;
6037;SDS011;3047;42.600;23.470;2023-07-13T09:38:27;2.67;;;2.47;;
6037;SDS011;3047;42.600;23.470;2023-07-13T09:41:10;2.30;;;2.20;;
6037;SDS011;3047;42.600;23.470;2023-07-13T09:44:00;2.70;;;2.50;;
6037;SDS011;3047;42.600;23.470;2023-07-13T09:46:27;4.88;;;3.13;;
6037;SDS011;3047;42.600;23.470;2023-07-13T09:48:55;4.32;;;3.05;;
6037;SDS011;3047;42.600;23.470;2023-07-13T09:51:22;2.65;;;2.28;;
6037;SDS011;3047;42.600;23.470;2023-07-13T09:53:49;2.55;;;2.35;;
6037;SDS011;3047;42.600;23.470;2023-07-13T09:56:20;2.72;;;2.53;;
6037;SDS011;3047;42.600;23.470;2023-07-13T09:58:48;2.35;;;2.15;;
6037;SDS011;3047;42.600;23.470;2023-07-13T10:01:15;2.90;;;2.67;;
6037;SDS011;3047;42.600;23.470;2023-07-13T10:03:56;2.58;;;2.13;;
6037;SDS011;3047;42.600;23.470;2023-07-13T10:06:23;3.92;;;2.97;;
6037;SDS011;3047;42.600;23.470;2023-07-13T10:08:51;2.80;;;2.58;;
6037;SDS011;3047;42.600;23.470;2023-07-13T10:11:21;2.88;;;2.67;;
6037;SDS011;3047;42.600;23.470;2023-07-13T10:13:51;2.83;;;2.50;;
6037;SDS011;3047;42.600;23.470;2023-07-13T10:16:20;3.60;;;2.67;;
6037;SDS011;3047;42.600;23.470;2023-07-13T10:18:48;2.75;;;2.50;;
6037;SDS011;3047;42.600;23.470;2023-07-13T10:21:17;2.50;;;2.30;;
6037;SDS011;3047;42.600;23.470;2023-07-13T10:23:47;2.88;;;2.50;;
6037;SDS011;3047;42.600;23.470;2023-07-13T10:26:17;2.10;;;2.00;;
6037;SDS011;3047;42.600;23.470;2023-07-13T10:28:51;5.03;;;2.60;;
6037;SDS011;3047;42.600;23.470;2023-07-13T10:31:21;2.40;;;2.03;;
6037;SDS011;3047;42.600;23.470;2023-07-13T10:33:49;2.85;;;2.65;;
6037;SDS011;3047;42.600;23.470;2023-07-13T10:36:23;2.45;;;2.22;;
6037;SDS011;3047;42.600;23.470;2023-07-13T10:38:57;2.80;;;2.40;;
6037;SDS011;3047;42.600;23.470;2023-07-13T10:41:27;2.75;;;2.60;;
6037;SDS011;3047;42.600;23.470;2023-07-13T10:43:58;2.80;;;2.60;;
6037;SDS011;3047;42.600;23.470;2023-07-13T10:46:27;3.17;;;2.25;;
6037;SDS011;3047;42.600;23.470;2023-07-13T10:48:57;3.75;;;2.30;;
6037;SDS011;3047;42.600;23.470;2023-07-13T10:51:26;2.15;;;2.03;;
6037;SDS011;3047;42.600;23.470;2023-07-13T10:56:44;2.53;;;2.33;;
6037;SDS011;3047;42.600;23.470;2023-07-13T10:59:13;5.40;;;2.47;;
6037;SDS011;3047;42.600;23.470;2023-07-13T11:01:50;2.35;;;1.95;;
6037;SDS011;3047;42.600;23.470;2023-07-13T11:04:21;3.55;;;2.58;;
6037;SDS011;3047;42.600;23.470;2023-07-13T11:06:50;1.63;;;1.60;;
6037;SDS011;3047;42.600;23.470;2023-07-13T11:12:09;2.10;;;2.00;;
6037;SDS011;3047;42.600;23.470;2023-07-13T11:15:02;3.70;;;2.95;;
6037;SDS011;3047;42.600;23.470;2023-07-13T11:17:35;2.33;;;2.20;;
6037;SDS011;3047;42.600;23.470;2023-07-13T11:20:19;5.25;;;2.28;;
6037;SDS011;3047;42.600;23.470;2023-07-13T11:22:49;4.22;;;2.17;;
6037;SDS011;3047;42.600;23.470;2023-07-13T11:25:21;3.25;;;2.20;;
6037;SDS011;3047;42.600;23.470;2023-07-13T11:28:06;1.80;;;1.70;;
6037;SDS011;3047;42.600;23.470;2023-07-13T11:30:41;2.92;;;2.75;;
6037;SDS011;3047;42.600;23.470;2023-07-13T11:33:19;3.00;;;2.22;;
6037;SDS011;3047;42.600;23.470;2023-07-13T11:35:51;2.90;;;2.63;;
6037;SDS011;3047;42.600;23.470;2023-07-13T11:38:27;2.72;;;2.53;;
6037;SDS011;3047;42.600;23.470;2023-07-13T11:40:58;2.95;;;2.75;;
6037;SDS011;3047;42.600;23.470;2023-07-13T11:43:30;2.80;;;2.22;;
6037;SDS011;3047;42.600;23.470;2023-07-13T11:45:59;2.92;;;2.50;;
6037;SDS011;3047;42.600;23.470;2023-07-13T11:48:38;5.95;;;5.45;;
6037;SDS011;3047;42.600;23.470;2023-07-13T11:51:06;2.53;;;2.40;;
6037;SDS011;3047;42.600;23.470;2023-07-13T11:53:45;2.50;;;2.35;;
6037;SDS011;3047;42.600;23.470;2023-07-13T11:56:13;2.40;;;2.30;;
6037;SDS011;3047;42.600;23.470;2023-07-13T11:58:41;2.97;;;2.78;;
6037;SDS011;3047;42.600;23.470;2023-07-13T12:01:10;3.13;;;2.72;;
6037;SDS011;3047;42.600;23.470;2023-07-13T12:03:44;2.30;;;2.20;;
6037;SDS011;3047;42.600;23.470;2023-07-13T12:06:21;2.63;;;2.33;;
6037;SDS011;3047;42.600;23.470;2023-07-13T12:08:55;2.40;;;2.22;;
6037;SDS011;3047;42.600;23.470;2023-07-13T12:11:22;2.83;;;2.63;;
6037;SDS011;3047;42.600;23.470;2023-07-13T12:13:50;3.50;;;2.22;;
6037;SDS011;3047;42.600;23.470;2023-07-13T12:16:17;2.95;;;2.60;;
6037;SDS011;3047;42.600;23.470;2023-07-13T12:18:52;2.58;;;2.45;;
6037;SDS011;3047;42.600;23.470;2023-07-13T12:21:22;3.05;;;2.80;;
6037;SDS011;3047;42.600;23.470;2023-07-13T12:23:54;2.95;;;2.67;;
6037;SDS011;3047;42.600;23.470;2023-07-13T12:26:21;2.78;;;2.60;;
6037;SDS011;3047;42.600;23.470;2023-07-13T12:28:49;10.00;;;3.38;;
6037;SDS011;3047;42.600;23.470;2023-07-13T12:31:25;3.53;;;2.88;;
6037;SDS011;3047;42.600;23.470;2023-07-13T12:33:58;3.50;;;3.20;;
6037;SDS011;3047;42.600;23.470;2023-07-13T12:36:26;7.13;;;2.65;;
6037;SDS011;3047;42.600;23.470;2023-07-13T12:38:56;7.45;;;2.67;;
6037;SDS011;3047;42.600;23.470;2023-07-13T12:41:24;3.22;;;3.00;;
6037;SDS011;3047;42.600;23.470;2023-07-13T12:43:53;5.55;;;2.75;;
6037;SDS011;3047;42.600;23.470;2023-07-13T12:46:20;3.30;;;2.55;;
6037;SDS011;3047;42.600;23.470;2023-07-13T12:48:54;5.65;;;2.70;;
6037;SDS011;3047;42.600;23.470;2023-07-13T12:51:24;2.45;;;2.30;;
6037;SDS011;3047;42.600;23.470;2023-07-13T12:53:56;6.07;;;2.80;;
6037;SDS011;3047;42.600;23.470;2023-07-13T12:56:25;4.47;;;2.78;;
6037;SDS011;3047;42.600;23.470;2023-07-13T12:58:58;3.30;;;3.10;;
6037;SDS011;3047;42.600;23.470;2023-07-13T13:01:27;2.95;;;2.75;;
6037;SDS011;3047;42.600;23.470;2023-07-13T13:03:55;5.45;;;2.75;;
6037;SDS011;3047;42.600;23.470;2023-07-13T13:06:24;2.80;;;2.60;;
6037;SDS011;3047;42.600;23.470;2023-07-13T13:08:53;3.70;;;3.25;;
6037;SDS011;3047;42.600;23.470;2023-07-13T13:11:23;3.42;;;3.10;;
6037;SDS011;3047;42.600;23.470;2023-07-13T13:13:51;2.80;;;2.60;;
6037;SDS011;3047;42.600;23.470;2023-07-13T13:16:21;2.63;;;2.47;;
6037;SDS011;3047;42.600;23.470;2023-07-13T13:18:50;3.00;;;2.75;;
6037;SDS011;3047;42.600;23.470;2023-07-13T13:21:18;3.47;;;2.85;;
6037;SDS011;3047;42.600;23.470;2023-07-13T13:23:45;3.17;;;2.97;;
6037;SDS011;3047;42.600;23.470;2023-07-13T13:26:13;3.13;;;2.80;;
6037;SDS011;3047;42.600;23.470;2023-07-13T13:28:41;3.47;;;2.35;;
6037;SDS011;3047;42.600;23.470;2023-07-13T13:31:09;2.38;;;2.15;;
6037;SDS011;3047;42.600;23.470;2023-07-13T13:33:39;3.65;;;2.25;;
6037;SDS011;3047;42.600;23.470;2023-07-13T13:36:12;3.35;;;2.30;;
6037;SDS011;3047;42.600;23.470;2023-07-13T13:38:42;3.20;;;1.77;;
6037;SDS011;3047;42.600;23.470;2023-07-13T13:41:09;1.85;;;1.58;;
6037;SDS011;3047;42.600;23.470;2023-07-13T13:43:38;2.92;;;2.60;;
6037;SDS011;3047;42.600;23.470;2023-07-13T13:46:11;3.90;;;2.60;;
6037;SDS011;3047;42.600;23.470;2023-07-13T13:48:43;3.10;;;2.53;;
6037;SDS011;3047;42.600;23.470;2023-07-13T13:51:14;2.03;;;1.92;;
6037;SDS011;3047;42.600;23.470;2023-07-13T13:53:42;2.17;;;2.08;;
6037;SDS011;3047;42.600;23.470;2023-07-13T13:56:09;2.13;;;2.03;;
6037;SDS011;3047;42.600;23.470;2023-07-13T13:58:36;2.70;;;2.50;;
6037;SDS011;3047;42.600;23.470;2023-07-13T14:01:02;2.22;;;2.00;;
6037;SDS011;3047;42.600;23.470;2023-07-13T14:03:33;2.75;;;2.40;;
6037;SDS011;3047;42.600;23.470;2023-07-13T14:06:01;2.72;;;2.53;;
6037;SDS011;3047;42.600;23.470;2023-07-13T14:08:28;3.55;;;1.90;;
6037;SDS011;3047;42.600;23.470;2023-07-13T14:10:56;2.60;;;2.40;;
6037;SDS011;3047;42.600;23.470;2023-07-13T14:13:26;2.67;;;2.47;;
6037;SDS011;3047;42.600;23.470;2023-07-13T14:16:07;3.47;;;1.75;;
6037;SDS011;3047;42.600;23.470;2023-07-13T14:18:37;2.53;;;2.35;;
6037;SDS011;3047;42.600;23.470;2023-07-13T14:21:08;3.53;;;2.33;;
6037;SDS011;3047;42.600;23.470;2023-07-13T14:23:37;2.83;;;2.63;;
6037;SDS011;3047;42.600;23.470;2023-07-13T14:26:07;1.70;;;1.60;;
6037;SDS011;3047;42.600;23.470;2023-07-13T14:28:37;2.20;;;2.10;;
6037;SDS011;3047;42.600;23.470;2023-07-13T14:31:08;3.88;;;1.85;;
6037;SDS011;3047;42.600;23.470;2023-07-13T14:33:34;2.33;;;2.22;;
6037;SDS011;3047;42.600;23.470;2023-07-13T14:36:01;2.13;;;2.00;;
6037;SDS011;3047;42.600;23.470;2023-07-13T14:38:30;3.33;;;2.72;;
6037;SDS011;3047;42.600;23.470;2023-07-13T14:40:56;3.58;;;3.28;;
6037;SDS011;3047;42.600;23.470;2023-07-13T14:43:23;2.83;;;2.63;;
6037;SDS011;3047;42.600;23.470;2023-07-13T14:45:53;4.68;;;3.05;;
6037;SDS011;3047;42.600;23.470;2023-07-13T14:48:21;3.30;;;3.00;;
6037;SDS011;3047;42.600;23.470;2023-07-13T14:50:51;4.30;;;3.13;;
6037;SDS011;3047;42.600;23.470;2023-07-13T14:53:21;2.67;;;2.47;;
6037;SDS011;3047;42.600;23.470;2023-07-13T14:55:50;2.58;;;1.90;;
6037;SDS011;3047;42.600;23.470;2023-07-13T14:58:16;2.35;;;2.15;;
6037;SDS011;3047;42.600;23.470;2023-07-13T15:00:43;3.47;;;2.15;;
6037;SDS011;3047;42.600;23.470;2023-07-13T15:03:14;2.17;;;1.92;;
6037;SDS011;3047;42.600;23.470;2023-07-13T15:05:44;2.17;;;1.98;;
6037;SDS011;3047;42.600;23.470;2023-07-13T15:08:11;3.22;;;2.28;;
6037;SDS011;3047;42.600;23.470;2023-07-13T15:10:38;4.18;;;2.50;;
6037;SDS011;3047;42.600;23.470;2023-07-13T15:13:14;3.40;;;3.10;;
6037;SDS011;3047;42.600;23.470;2023-07-13T15:15:43;3.20;;;3.10;;
6037;SDS011;3047;42.600;23.470;2023-07-13T15:18:13;3.22;;;2.58;;
6037;SDS011;3047;42.600;23.470;2023-07-13T15:20:42;3.28;;;3.08;;
6037;SDS011;3047;42.600;23.470;2023-07-13T15:23:10;3.50;;;2.40;;
6037;SDS011;3047;42.600;23.470;2023-07-13T15:25:37;2.30;;;2.10;;
6037;SDS011;3047;42.600;23.470;2023-07-13T15:28:04;2.40;;;2.03;;
6037;SDS011;3047;42.600;23.470;2023-07-13T15:30:33;4.93;;;2.38;;
6037;SDS011;3047;42.600;23.470;2023-07-13T15:33:09;2.28;;;1.65;;
6037;SDS011;3047;42.600;23.470;2023-07-13T15:35:38;2.70;;;2.28;;
6037;SDS011;3047;42.600;23.470;2023-07-13T15:38:11;2.88;;;2.05;;